createdAt,value
2023-05-09T00:01:20.940Z,15.90
2023-05-09T00:03:47.806Z,15.90
2023-05-09T00:06:15.427Z,15.90
2023-05-09T00:08:42.108Z,16.00
2023-05-09T00:11:09.041Z,16.00
2023-05-09T00:13:35.798Z,16.00
2023-05-09T00:16:03.485Z,16.10
2023-05-09T00:18:31.099Z,16.10
2023-05-09T00:20:57.858Z,16.20
2023-05-09T00:23:24.511Z,16.20
2023-05-09T00:25:51.207Z,16.20
2023-05-09T00:28:17.919Z,16.20
2023-05-09T00:30:45.654Z,16.20
2023-05-09T00:33:12.356Z,16.30
2023-05-09T00:35:39.354Z,16.30
2023-05-09T00:38:06.106Z,16.30
2023-05-09T00:40:32.760Z,16.30
2023-05-09T00:43:00.057Z,16.30
2023-05-09T00:45:26.904Z,16.20
2023-05-09T00:47:53.800Z,16.20
2023-05-09T00:50:20.881Z,16.30
2023-05-09T00:52:47.552Z,16.30
2023-05-09T00:55:16.241Z,16.30
2023-05-09T00:57:43.138Z,16.30
2023-05-09T01:00:13.252Z,16.30
2023-05-09T01:02:46.531Z,16.30
2023-05-09T01:05:13.975Z,16.30
2023-05-09T01:08:19.208Z,16.40
2023-05-09T01:11:03.963Z,16.40
2023-05-09T01:13:34.888Z,16.30
2023-05-09T01:16:12.861Z,16.40
2023-05-09T01:18:54.395Z,16.40
2023-05-09T01:21:26.884Z,16.40
2023-05-09T01:24:16.548Z,16.40
2023-05-09T01:26:52.243Z,16.40
2023-05-09T01:29:40.754Z,16.40
2023-05-09T01:32:19.122Z,16.30
2023-05-09T01:34:47.684Z,16.30
2023-05-09T01:37:16.291Z,16.30
2023-05-09T01:39:49.138Z,16.20
2023-05-09T01:42:18.680Z,16.20
2023-05-09T01:44:47.269Z,16.10
2023-05-09T01:47:16.590Z,16.10
2023-05-09T01:49:44.452Z,16.00
2023-05-09T01:52:16.198Z,16.00
2023-05-09T01:54:44.497Z,15.90
2023-05-09T01:57:12.047Z,15.90
2023-05-09T01:59:42.124Z,15.80
2023-05-09T02:02:09.300Z,15.80
2023-05-09T02:04:36.382Z,15.70
2023-05-09T02:07:05.823Z,15.60
2023-05-09T02:09:32.569Z,15.50
2023-05-09T02:11:59.348Z,15.50
2023-05-09T02:14:26.184Z,15.40
2023-05-09T02:16:52.870Z,15.40
2023-05-09T02:19:19.503Z,15.30
2023-05-09T02:21:46.129Z,15.30
2023-05-09T02:24:12.924Z,15.30
2023-05-09T02:26:40.949Z,15.20
2023-05-09T02:29:08.515Z,15.20
2023-05-09T02:31:35.963Z,15.20
2023-05-09T02:34:04.778Z,15.20
2023-05-09T02:36:32.596Z,15.10
2023-05-09T02:39:00.010Z,15.10
2023-05-09T02:41:28.368Z,15.00
2023-05-09T02:43:55.060Z,14.90
2023-05-09T02:46:21.965Z,15.00
2023-05-09T02:48:49.227Z,15.00
2023-05-09T02:51:15.944Z,14.90
2023-05-09T02:53:42.572Z,14.90
2023-05-09T02:56:10.833Z,14.90
2023-05-09T02:58:38.425Z,14.80
2023-05-09T03:01:05.294Z,14.80
2023-05-09T03:03:34.112Z,14.80
2023-05-09T03:06:01.486Z,14.70
2023-05-09T03:08:28.133Z,14.70
2023-05-09T03:10:54.801Z,14.60
2023-05-09T03:13:21.623Z,14.60
2023-05-09T03:15:48.390Z,14.50
2023-05-09T03:18:15.066Z,14.60
2023-05-09T03:20:41.671Z,14.50
2023-05-09T03:23:08.423Z,14.40
2023-05-09T03:25:35.080Z,14.40
2023-05-09T03:28:01.794Z,14.30
2023-05-09T03:30:28.424Z,14.30
2023-05-09T03:32:55.265Z,14.30
2023-05-09T03:35:22.069Z,14.30
2023-05-09T03:37:48.767Z,14.20
2023-05-09T03:40:15.515Z,14.20
2023-05-09T03:42:42.146Z,14.20
2023-05-09T03:45:09.331Z,14.20
2023-05-09T03:47:36.386Z,14.10
2023-05-09T03:50:04.148Z,14.10
2023-05-09T03:52:30.946Z,14.10
2023-05-09T03:54:57.564Z,14.00
2023-05-09T03:57:24.217Z,14.00
2023-05-09T03:59:51.308Z,13.90
2023-05-09T04:02:18.085Z,13.90
2023-05-09T04:04:46.072Z,13.80
2023-05-09T04:07:12.819Z,13.80
2023-05-09T04:09:41.156Z,13.80
2023-05-09T04:12:07.816Z,13.80
2023-05-09T04:14:34.519Z,13.80
2023-05-09T04:17:01.253Z,13.90
2023-05-09T04:19:27.947Z,13.90
2023-05-09T04:21:54.543Z,13.90
2023-05-09T04:24:21.173Z,13.90
2023-05-09T04:26:47.980Z,14.00
2023-05-09T04:29:14.638Z,14.00
2023-05-09T04:31:41.417Z,14.00
2023-05-09T04:34:08.093Z,14.10
2023-05-09T04:36:34.728Z,14.10
2023-05-09T04:39:01.444Z,14.10
2023-05-09T04:41:28.677Z,14.20
2023-05-09T04:43:55.775Z,14.20
2023-05-09T04:46:24.970Z,14.30
2023-05-09T04:48:52.323Z,14.40
2023-05-09T04:51:19.082Z,14.40
2023-05-09T04:53:45.910Z,14.50
2023-05-09T04:56:12.580Z,14.60
2023-05-09T04:58:39.450Z,14.60
2023-05-09T05:01:06.553Z,14.80
2023-05-09T05:03:33.506Z,14.90
2023-05-09T05:06:00.186Z,14.90
2023-05-09T05:08:26.790Z,15.10
2023-05-09T05:10:53.426Z,15.20
2023-05-09T05:13:21.433Z,15.30
2023-05-09T05:15:48.290Z,15.40
2023-05-09T05:18:15.068Z,15.60
2023-05-09T05:20:42.247Z,15.70
2023-05-09T05:23:09.500Z,15.80
2023-05-09T05:25:36.411Z,16.00
2023-05-09T05:28:03.149Z,16.20
2023-05-09T05:30:32.119Z,16.40
2023-05-09T05:33:00.276Z,16.40
2023-05-09T05:35:28.246Z,16.50
2023-05-09T05:37:54.867Z,16.70
2023-05-09T05:40:21.502Z,16.80
2023-05-09T05:42:48.121Z,16.90
2023-05-09T05:45:15.085Z,16.80
2023-05-09T05:47:41.965Z,17.10
2023-05-09T05:50:11.810Z,17.20
2023-05-09T05:52:39.704Z,17.30
2023-05-09T05:55:06.678Z,17.30
2023-05-09T05:57:34.540Z,17.30
2023-05-09T06:00:01.764Z,17.40
2023-05-09T06:02:28.544Z,17.40
2023-05-09T06:04:56.159Z,17.50
2023-05-09T06:07:22.957Z,17.50
2023-05-09T06:09:49.624Z,17.60
2023-05-09T06:12:17.068Z,17.70
2023-05-09T06:14:43.885Z,17.80
2023-05-09T06:17:10.949Z,17.90
2023-05-09T06:19:37.706Z,17.80
2023-05-09T06:22:04.448Z,17.90
2023-05-09T06:24:35.900Z,18.10
2023-05-09T06:27:03.819Z,18.30
2023-05-09T06:29:30.455Z,18.40
2023-05-09T06:31:57.120Z,18.50
2023-05-09T06:34:23.762Z,18.50
2023-05-09T06:36:50.465Z,18.70
2023-05-09T06:39:17.160Z,18.80
2023-05-09T06:41:43.804Z,18.70
2023-05-09T06:44:10.426Z,18.80
2023-05-09T06:46:37.107Z,18.90
2023-05-09T06:49:03.762Z,18.70
2023-05-09T06:51:31.233Z,18.60
2023-05-09T06:53:58.218Z,18.70
2023-05-09T06:56:25.877Z,18.80
2023-05-09T06:58:52.701Z,18.90
2023-05-09T07:01:19.370Z,19.00
2023-05-09T07:03:47.473Z,19.00
2023-05-09T07:06:14.148Z,18.90
2023-05-09T07:08:40.909Z,18.90
2023-05-09T07:11:07.715Z,18.90
2023-05-09T07:13:34.417Z,18.90
2023-05-09T07:16:01.089Z,19.00
2023-05-09T07:18:27.792Z,19.00
2023-05-09T07:20:54.451Z,18.90
2023-05-09T07:23:21.158Z,18.90
2023-05-09T07:25:47.907Z,18.90
2023-05-09T07:28:14.558Z,18.90
2023-05-09T07:30:41.619Z,18.80
2023-05-09T07:33:08.290Z,18.80
2023-05-09T07:35:35.062Z,18.60
2023-05-09T07:38:01.854Z,18.40
2023-05-09T07:40:28.505Z,18.40
2023-05-09T07:42:56.722Z,18.30
2023-05-09T07:45:24.009Z,18.30
2023-05-09T07:47:50.898Z,18.30
2023-05-09T07:50:18.010Z,18.40
2023-05-09T07:52:44.841Z,18.50
2023-05-09T07:55:12.382Z,18.50
2023-05-09T07:57:39.972Z,18.50
2023-05-09T08:00:08.716Z,18.60
2023-05-09T08:02:35.578Z,18.70
2023-05-09T08:05:02.347Z,18.70
2023-05-09T08:07:29.017Z,18.80
2023-05-09T08:09:55.655Z,18.90
2023-05-09T08:12:22.310Z,18.80
2023-05-09T08:14:48.932Z,18.90
2023-05-09T08:17:16.253Z,18.80
2023-05-09T08:19:42.874Z,18.70
2023-05-09T08:22:09.545Z,18.70
2023-05-09T08:24:36.352Z,18.60
2023-05-09T08:27:03.030Z,18.60
2023-05-09T08:29:29.857Z,18.70
2023-05-09T08:31:56.551Z,18.60
2023-05-09T08:34:23.215Z,18.70
2023-05-09T08:36:49.856Z,18.80
2023-05-09T08:39:16.512Z,18.70
2023-05-09T08:41:43.595Z,18.70
2023-05-09T08:44:10.906Z,18.70
2023-05-09T08:46:42.837Z,18.60
2023-05-09T08:49:09.810Z,18.50
2023-05-09T08:51:37.060Z,18.60
2023-05-09T08:54:05.039Z,18.70
2023-05-09T08:56:32.123Z,18.70
2023-05-09T08:58:59.054Z,18.70
2023-05-09T09:01:26.871Z,18.70
2023-05-09T09:03:53.996Z,18.80
2023-05-09T09:06:21.954Z,18.90
2023-05-09T09:08:49.156Z,18.90
2023-05-09T09:11:17.114Z,19.00
2023-05-09T09:13:45.296Z,19.20
2023-05-09T09:16:21.051Z,19.40
2023-05-09T09:18:48.333Z,19.60
2023-05-09T09:21:19.291Z,19.80
2023-05-09T09:23:47.565Z,19.90
2023-05-09T09:26:15.077Z,19.90
2023-05-09T09:28:42.874Z,20.00
2023-05-09T09:31:23.413Z,20.00
2023-05-09T09:33:51.168Z,20.10
2023-05-09T09:36:30.652Z,20.10
2023-05-09T09:39:00.517Z,20.30
2023-05-09T09:41:34.707Z,20.30
2023-05-09T09:44:21.231Z,20.20
2023-05-09T09:46:50.635Z,20.10
2023-05-09T09:49:22.236Z,20.30
2023-05-09T09:51:53.445Z,20.40
2023-05-09T09:54:20.377Z,20.50
2023-05-09T09:56:54.801Z,20.70
2023-05-09T09:59:24.903Z,20.80
2023-05-09T10:02:07.081Z,20.90
2023-05-09T10:04:36.643Z,20.80
2023-05-09T10:07:05.903Z,20.60
2023-05-09T10:09:33.945Z,20.60
2023-05-09T10:12:04.334Z,20.50
2023-05-09T10:14:34.313Z,20.50
2023-05-09T10:17:03.744Z,20.70
2023-05-09T10:19:31.877Z,20.90
2023-05-09T10:22:09.506Z,21.30
2023-05-09T10:24:44.950Z,21.60
2023-05-09T10:27:12.902Z,22.00
2023-05-09T10:29:49.813Z,22.30
2023-05-09T10:32:23.435Z,22.50
2023-05-09T10:34:53.150Z,22.60
2023-05-09T10:37:22.167Z,22.60
2023-05-09T10:39:53.149Z,22.50
2023-05-09T10:42:20.393Z,22.40
2023-05-09T10:44:47.922Z,22.10
2023-05-09T10:47:15.436Z,21.90
2023-05-09T10:49:43.648Z,21.80
2023-05-09T10:52:10.494Z,21.70
2023-05-09T10:54:37.421Z,21.80
2023-05-09T10:57:08.802Z,21.70
2023-05-09T10:59:42.795Z,21.50
2023-05-09T11:02:14.176Z,21.50
2023-05-09T11:04:41.401Z,21.40
2023-05-09T11:07:24.438Z,21.40
2023-05-09T11:09:52.776Z,21.40
2023-05-09T11:12:21.233Z,21.40
2023-05-09T11:14:51.733Z,21.40
2023-05-09T11:17:21.688Z,21.40
2023-05-09T11:19:48.994Z,21.50
2023-05-09T11:22:17.767Z,21.50
2023-05-09T11:24:52.023Z,21.70
2023-05-09T11:27:23.871Z,22.10
2023-05-09T11:29:58.754Z,22.30
2023-05-09T11:32:31.880Z,22.60
2023-05-09T11:35:09.527Z,22.80
2023-05-09T11:37:55.043Z,23.10
2023-05-09T11:40:22.684Z,23.50
2023-05-09T11:42:58.002Z,23.90
2023-05-09T11:45:30.821Z,24.30
2023-05-09T11:47:57.785Z,24.60
2023-05-09T11:50:24.934Z,25.00
2023-05-09T11:52:51.929Z,25.30
2023-05-09T11:55:22.053Z,25.40
2023-05-09T11:57:53.072Z,25.30
2023-05-09T12:00:21.617Z,25.30
2023-05-09T12:02:49.127Z,25.40
2023-05-09T12:05:18.607Z,25.50
2023-05-09T12:07:46.234Z,25.70
2023-05-09T12:10:19.550Z,25.80
2023-05-09T12:12:48.424Z,25.90
2023-05-09T12:15:15.763Z,26.00
2023-05-09T12:17:47.299Z,25.90
2023-05-09T12:20:15.798Z,26.10
2023-05-09T12:22:43.951Z,26.30
2023-05-09T12:25:12.013Z,26.20
2023-05-09T12:27:40.673Z,26.10
2023-05-09T12:30:13.876Z,25.90
2023-05-09T12:32:41.822Z,25.90
2023-05-09T12:35:10.238Z,25.90
2023-05-09T12:37:37.003Z,26.20
2023-05-09T12:40:11.220Z,26.20
2023-05-09T12:42:38.472Z,26.10
2023-05-09T12:45:08.419Z,26.00
2023-05-09T12:47:35.457Z,25.80
2023-05-09T12:50:04.180Z,25.50
2023-05-09T12:52:36.810Z,25.20
2023-05-09T12:55:10.242Z,24.80
2023-05-09T12:57:38.004Z,24.50
2023-05-09T13:00:07.168Z,24.50
2023-05-09T13:02:39.826Z,24.80
2023-05-09T13:05:16.007Z,25.00
2023-05-09T13:07:47.762Z,24.70
2023-05-09T13:10:26.121Z,24.70
2023-05-09T13:12:53.388Z,24.80
2023-05-09T13:15:21.619Z,24.50
2023-05-09T13:17:50.093Z,24.30
2023-05-09T13:20:17.587Z,23.90
2023-05-09T13:22:45.628Z,23.80
2023-05-09T13:25:12.970Z,23.70
2023-05-09T13:27:39.668Z,23.70
2023-05-09T13:30:09.489Z,23.90
2023-05-09T13:32:38.946Z,23.40
2023-05-09T13:35:07.959Z,23.60
2023-05-09T13:37:35.435Z,23.60
2023-05-09T13:40:03.002Z,23.60
2023-05-09T13:42:29.611Z,23.70
2023-05-09T13:44:56.231Z,23.70
2023-05-09T13:47:23.018Z,23.90
2023-05-09T13:49:49.678Z,23.90
2023-05-09T13:52:16.397Z,24.00
2023-05-09T13:54:43.098Z,24.10
2023-05-09T13:57:10.091Z,24.10
2023-05-09T13:59:36.853Z,24.00
2023-05-09T14:02:03.779Z,24.20
2023-05-09T14:04:34.331Z,24.20
2023-05-09T14:07:01.344Z,24.20
2023-05-09T14:09:29.452Z,24.10
2023-05-09T14:11:56.952Z,24.00
2023-05-09T14:14:25.830Z,24.10
2023-05-09T14:16:53.922Z,24.10
2023-05-09T14:19:20.605Z,24.30
2023-05-09T14:21:47.323Z,24.30
2023-05-09T14:24:16.292Z,24.40
2023-05-09T14:26:43.705Z,24.40
2023-05-09T14:29:10.615Z,24.30
2023-05-09T14:31:37.563Z,24.50
2023-05-09T14:34:05.286Z,24.60
2023-05-09T14:36:32.459Z,24.50
2023-05-09T14:38:59.098Z,24.50
2023-05-09T14:41:25.949Z,24.50
2023-05-09T14:43:54.130Z,24.70
2023-05-09T14:46:20.906Z,24.70
2023-05-09T14:48:47.637Z,24.80
2023-05-09T14:51:14.355Z,24.60
2023-05-09T14:53:41.884Z,24.60
2023-05-09T14:56:10.396Z,24.60
2023-05-09T14:58:37.617Z,24.50
2023-05-09T15:01:04.547Z,24.50
2023-05-09T15:03:31.617Z,24.40
2023-05-09T15:05:59.104Z,24.30
2023-05-09T15:08:26.291Z,24.30
2023-05-09T15:10:53.170Z,24.20
2023-05-09T15:13:19.886Z,24.10
2023-05-09T15:15:47.138Z,24.00
2023-05-09T15:18:16.374Z,24.00
2023-05-09T15:20:43.267Z,23.90
2023-05-09T15:23:10.736Z,23.70
2023-05-09T15:25:37.663Z,23.60
2023-05-09T15:28:04.558Z,23.50
2023-05-09T15:30:31.232Z,23.40
2023-05-09T15:32:59.149Z,23.30
2023-05-09T15:35:25.919Z,23.20
2023-05-09T15:37:52.619Z,23.20
2023-05-09T15:40:19.284Z,23.20
2023-05-09T15:42:48.173Z,23.00
2023-05-09T15:45:15.702Z,23.00
2023-05-09T15:47:42.328Z,22.80
2023-05-09T15:50:09.287Z,22.70
2023-05-09T15:52:35.942Z,22.60
2023-05-09T15:55:02.898Z,22.50
2023-05-09T15:57:29.536Z,22.50
2023-05-09T15:59:56.203Z,22.50
2023-05-09T16:02:23.858Z,22.50
2023-05-09T16:04:50.816Z,22.50
2023-05-09T16:07:19.454Z,22.50
2023-05-09T16:09:46.619Z,22.50
2023-05-09T16:12:13.746Z,22.50
2023-05-09T16:14:40.422Z,22.50
2023-05-09T16:17:07.105Z,22.40
2023-05-09T16:19:36.354Z,22.50
2023-05-09T16:22:03.108Z,22.40
2023-05-09T16:24:31.645Z,22.40
2023-05-09T16:26:58.389Z,22.30
2023-05-09T16:29:25.024Z,22.30
2023-05-09T16:31:51.740Z,22.20
2023-05-09T16:34:18.392Z,22.20
2023-05-09T16:36:46.368Z,22.10
2023-05-09T16:39:13.202Z,22.00
2023-05-09T16:41:39.822Z,22.00
2023-05-09T16:44:06.459Z,21.90
2023-05-09T16:46:33.091Z,21.90
2023-05-09T16:48:59.720Z,21.80
2023-05-09T16:51:26.361Z,21.80
2023-05-09T16:53:53.034Z,21.70
2023-05-09T16:56:19.689Z,21.70
2023-05-09T16:58:46.355Z,21.70
2023-05-09T17:01:13.253Z,21.60
2023-05-09T17:03:39.934Z,21.50
2023-05-09T17:06:06.970Z,21.40
2023-05-09T17:08:33.617Z,21.30
2023-05-09T17:11:00.494Z,21.30
2023-05-09T17:13:28.046Z,21.20
2023-05-09T17:15:54.875Z,21.20
2023-05-09T17:18:33.224Z,21.10
2023-05-09T17:21:03.231Z,20.90
2023-05-09T17:23:29.864Z,20.90
2023-05-09T17:25:56.545Z,20.80
2023-05-09T17:28:23.174Z,20.70
2023-05-09T17:30:49.828Z,20.70
2023-05-09T17:33:16.453Z,20.70
2023-05-09T17:35:43.092Z,20.70
2023-05-09T17:38:09.736Z,20.60
2023-05-09T17:40:36.638Z,20.60
2023-05-09T17:43:03.319Z,20.60
2023-05-09T17:45:30.074Z,20.40
2023-05-09T17:47:56.862Z,20.40
2023-05-09T17:50:23.574Z,20.10
2023-05-09T17:52:50.330Z,20.00
2023-05-09T17:55:17.012Z,19.80
2023-05-09T17:57:43.808Z,19.60
2023-05-09T18:00:11.495Z,19.50
2023-05-09T18:02:38.788Z,19.30
2023-05-09T18:05:07.754Z,19.20
2023-05-09T18:07:34.483Z,19.10
2023-05-09T18:10:01.134Z,18.90
2023-05-09T18:12:29.005Z,18.80
2023-05-09T18:14:55.702Z,18.80
2023-05-09T18:17:22.438Z,18.70
2023-05-09T18:19:49.038Z,18.70
2023-05-09T18:22:18.609Z,18.70
2023-05-09T18:24:45.761Z,18.60
2023-05-09T18:27:12.388Z,18.60
2023-05-09T18:29:39.003Z,18.50
2023-05-09T18:32:06.826Z,18.50
2023-05-09T18:34:33.753Z,18.40
2023-05-09T18:37:00.429Z,18.40
2023-05-09T18:39:27.280Z,18.30
2023-05-09T18:41:54.267Z,18.20
2023-05-09T18:44:20.919Z,18.20
2023-05-09T18:46:47.603Z,18.10
2023-05-09T18:49:14.524Z,18.10
2023-05-09T18:51:41.280Z,18.00
2023-05-09T18:54:08.143Z,18.00
2023-05-09T18:56:39.196Z,18.00
2023-05-09T18:59:07.475Z,17.90
2023-05-09T19:01:34.229Z,17.90
2023-05-09T19:04:01.840Z,17.80
2023-05-09T19:06:29.088Z,17.80
2023-05-09T19:08:55.777Z,17.70
2023-05-09T19:11:22.422Z,17.70
2023-05-09T19:13:49.247Z,17.70
2023-05-09T19:16:18.642Z,17.70
2023-05-09T19:18:45.572Z,17.70
2023-05-09T19:21:13.398Z,17.60
2023-05-09T19:23:40.128Z,17.40
2023-05-09T19:26:06.883Z,17.30
2023-05-09T19:28:34.868Z,17.30
2023-05-09T19:31:02.201Z,17.20
2023-05-09T19:33:28.968Z,17.30
2023-05-09T19:35:55.600Z,17.30
2023-05-09T19:38:22.438Z,17.40
2023-05-09T19:40:49.068Z,17.40
2023-05-09T19:43:15.802Z,17.40
2023-05-09T19:45:42.641Z,17.40
2023-05-09T19:48:15.079Z,17.40
2023-05-09T19:50:42.954Z,17.40
2023-05-09T19:53:09.681Z,17.40
2023-05-09T19:55:36.680Z,17.40
2023-05-09T19:58:04.045Z,17.40
2023-05-09T20:00:31.675Z,17.40
2023-05-09T20:02:58.354Z,17.40
2023-05-09T20:05:25.170Z,17.40
2023-05-09T20:07:51.969Z,17.40
2023-05-09T20:10:18.667Z,17.30
2023-05-09T20:12:45.616Z,17.30
2023-05-09T20:15:12.284Z,17.30
2023-05-09T20:17:38.947Z,17.30
2023-05-09T20:20:06.258Z,17.30
2023-05-09T20:22:32.971Z,17.20
2023-05-09T20:24:59.606Z,17.00
2023-05-09T20:27:26.458Z,17.00
2023-05-09T20:29:53.190Z,16.90
2023-05-09T20:32:19.920Z,16.80
2023-05-09T20:34:46.542Z,16.60
2023-05-09T20:37:13.391Z,16.70
2023-05-09T20:39:40.056Z,16.60
2023-05-09T20:42:07.083Z,16.50
2023-05-09T20:44:33.853Z,16.50
2023-05-09T20:47:00.552Z,16.50
2023-05-09T20:49:27.226Z,16.50
2023-05-09T20:51:55.166Z,16.40
2023-05-09T20:54:23.887Z,16.40
2023-05-09T20:56:50.713Z,16.30
2023-05-09T20:59:17.903Z,16.40
2023-05-09T21:01:44.579Z,16.30
2023-05-09T21:04:11.278Z,16.30
2023-05-09T21:06:37.946Z,16.30
2023-05-09T21:09:09.176Z,16.20
2023-05-09T21:11:37.169Z,16.20
2023-05-09T21:14:03.969Z,16.10
2023-05-09T21:16:30.738Z,16.10
2023-05-09T21:18:59.393Z,16.10
2023-05-09T21:21:25.992Z,16.00
2023-05-09T21:23:52.637Z,16.00
2023-05-09T21:26:19.324Z,16.00
2023-05-09T21:28:45.953Z,15.90
2023-05-09T21:31:12.623Z,15.90
2023-05-09T21:33:39.483Z,15.90
2023-05-09T21:36:07.637Z,15.90
2023-05-09T21:38:34.365Z,15.90
2023-05-09T21:41:01.080Z,15.80
2023-05-09T21:43:28.588Z,15.90
2023-05-09T21:45:55.953Z,15.90
2023-05-09T21:48:22.687Z,15.90
2023-05-09T21:50:49.371Z,15.90
2023-05-09T21:53:15.995Z,15.90
2023-05-09T21:55:42.598Z,15.90
2023-05-09T21:58:09.202Z,15.80
2023-05-09T22:00:35.850Z,15.80
2023-05-09T22:03:02.581Z,15.80
2023-05-09T22:05:29.347Z,15.80
2023-05-09T22:07:55.957Z,15.80
2023-05-09T22:10:22.697Z,15.80
2023-05-09T22:12:49.382Z,15.70
2023-05-09T22:15:16.002Z,15.70
2023-05-09T22:17:42.726Z,15.70
2023-05-09T22:20:10.143Z,15.70
2023-05-09T22:22:36.741Z,16.20
2023-05-09T22:25:04.560Z,15.70
2023-05-09T22:27:31.190Z,15.80
2023-05-09T22:29:57.890Z,15.90
2023-05-09T22:32:24.522Z,16.00
2023-05-09T22:34:51.195Z,16.10
2023-05-09T22:37:17.833Z,16.20
2023-05-09T22:39:44.466Z,16.10
2023-05-09T22:42:11.340Z,16.10
2023-05-09T22:44:38.989Z,16.10
2023-05-09T22:47:07.708Z,16.20
2023-05-09T22:49:35.426Z,16.20
2023-05-09T22:52:02.275Z,16.20
2023-05-09T22:54:28.953Z,16.20
2023-05-09T22:56:55.701Z,16.00
2023-05-09T22:59:22.667Z,16.00
2023-05-09T23:01:49.345Z,15.80
2023-05-09T23:04:15.981Z,15.60
2023-05-09T23:06:42.615Z,15.50
2023-05-09T23:09:09.505Z,15.40
2023-05-09T23:11:36.446Z,15.30
2023-05-09T23:14:03.571Z,15.10
2023-05-09T23:16:30.245Z,15.10
2023-05-09T23:18:56.872Z,15.10
2023-05-09T23:21:23.507Z,15.00
2023-05-09T23:23:50.108Z,15.00
2023-05-09T23:26:16.748Z,14.90
2023-05-09T23:28:43.349Z,14.90
2023-05-09T23:31:10.633Z,14.90
2023-05-09T23:33:37.276Z,14.80
2023-05-09T23:36:04.341Z,14.80
2023-05-09T23:38:30.952Z,14.80
2023-05-09T23:40:58.408Z,14.80
2023-05-09T23:43:25.047Z,14.70
2023-05-09T23:45:51.774Z,14.70
2023-05-09T23:48:18.375Z,14.70
2023-05-09T23:50:45.033Z,14.70
2023-05-09T23:53:11.974Z,14.70
2023-05-09T23:55:38.642Z,14.70
2023-05-09T23:58:05.296Z,14.70
